< < Back
Terminal Aerodrome Forecast


Current Version              Previous Versions:   1  2  3  4  5  6  7  8  9  

Terminal Aerodrome Forecast

031
FTUS44 KBMX 300013 AAA
TAFMGM
TAF AMD
KMGM 300013Z 3000/3024 08005KT P6SM VCSH SCT060
     FM300130 08004KT P6SM SCT060
     FM301600 07009KT P6SM SCT070=



Latest METAR

311
SAUS80 KWBC 301000 RRB
MTRMGM
METAR KMGM 300953Z AUTO 08005KT 10SM CLR 24/21 A3000 RMK AO2 SLP156
T02390206 $


USA.gov is the U.S. government's official web portal to all federal, state and local government web resources and services.